sensor_id;sensor_type;location;lat;lon;timestamp;temperature;humidity
45906;DHT22;31619;49.008;12.106;2023-01-26T00:01:58;0.70;99.90
45906;DHT22;31619;49.008;12.106;2023-01-26T00:04:24;0.70;99.90
45906;DHT22;31619;49.008;12.106;2023-01-26T00:06:50;0.70;99.90
45906;DHT22;31619;49.008;12.106;2023-01-26T00:09:15;0.70;99.90
45906;DHT22;31619;49.008;12.106;2023-01-26T00:11:41;0.70;99.90
45906;DHT22;31619;49.008;12.106;2023-01-26T00:14:07;0.60;99.90
45906;DHT22;31619;49.008;12.106;2023-01-26T00:16:32;0.60;99.90
45906;DHT22;31619;49.008;12.106;2023-01-26T00:18:58;0.60;99.90
45906;DHT22;31619;49.008;12.106;2023-01-26T00:21:25;0.60;99.90
45906;DHT22;31619;49.008;12.106;2023-01-26T00:23:51;0.60;99.90
45906;DHT22;31619;49.008;12.106;2023-01-26T00:26:21;0.50;99.90
45906;DHT22;31619;49.008;12.106;2023-01-26T00:28:48;0.40;99.90
45906;DHT22;31619;49.008;12.106;2023-01-26T00:31:16;0.40;99.90
45906;DHT22;31619;49.008;12.106;2023-01-26T00:33:42;0.40;99.90
45906;DHT22;31619;49.008;12.106;2023-01-26T00:36:08;0.40;99.90
45906;DHT22;31619;49.008;12.106;2023-01-26T00:38:34;0.40;99.90
45906;DHT22;31619;49.008;12.106;2023-01-26T00:41:00;0.40;99.90
45906;DHT22;31619;49.008;12.106;2023-01-26T00:43:25;0.40;99.90
45906;DHT22;31619;49.008;12.106;2023-01-26T00:45:51;0.50;99.90
45906;DHT22;31619;49.008;12.106;2023-01-26T00:48:17;0.40;99.90
45906;DHT22;31619;49.008;12.106;2023-01-26T00:50:42;0.50;99.90
45906;DHT22;31619;49.008;12.106;2023-01-26T00:53:08;0.40;99.90
45906;DHT22;31619;49.008;12.106;2023-01-26T00:55:34;0.40;99.90
45906;DHT22;31619;49.008;12.106;2023-01-26T00:58:04;0.40;99.90
45906;DHT22;31619;49.008;12.106;2023-01-26T01:00:32;0.30;99.90
45906;DHT22;31619;49.008;12.106;2023-01-26T01:02:58;0.40;99.90
45906;DHT22;31619;49.008;12.106;2023-01-26T01:05:25;0.50;99.90
45906;DHT22;31619;49.008;12.106;2023-01-26T01:07:51;0.60;99.90
45906;DHT22;31619;49.008;12.106;2023-01-26T01:10:18;0.40;99.90
45906;DHT22;31619;49.008;12.106;2023-01-26T01:12:43;0.50;99.90
45906;DHT22;31619;49.008;12.106;2023-01-26T01:15:10;0.40;99.90
45906;DHT22;31619;49.008;12.106;2023-01-26T01:17:35;0.40;99.90
45906;DHT22;31619;49.008;12.106;2023-01-26T01:20:06;0.40;99.90
45906;DHT22;31619;49.008;12.106;2023-01-26T01:22:34;0.30;99.90
45906;DHT22;31619;49.008;12.106;2023-01-26T01:24:59;0.30;99.90
45906;DHT22;31619;49.008;12.106;2023-01-26T01:27:25;0.40;99.90
45906;DHT22;31619;49.008;12.106;2023-01-26T01:29:51;0.30;99.90
45906;DHT22;31619;49.008;12.106;2023-01-26T01:32:17;0.40;99.90
45906;DHT22;31619;49.008;12.106;2023-01-26T01:34:46;0.40;99.90
45906;DHT22;31619;49.008;12.106;2023-01-26T01:37:12;0.40;99.90
45906;DHT22;31619;49.008;12.106;2023-01-26T01:39:38;0.40;99.90
45906;DHT22;31619;49.008;12.106;2023-01-26T01:42:03;0.50;99.90
45906;DHT22;31619;49.008;12.106;2023-01-26T01:44:29;0.50;99.90
45906;DHT22;31619;49.008;12.106;2023-01-26T01:46:58;0.50;99.90
45906;DHT22;31619;49.008;12.106;2023-01-26T01:49:33;0.50;99.90
45906;DHT22;31619;49.008;12.106;2023-01-26T01:52:03;0.50;99.90
45906;DHT22;31619;49.008;12.106;2023-01-26T01:54:42;0.50;99.90
45906;DHT22;31619;49.008;12.106;2023-01-26T01:57:15;0.50;99.90
45906;DHT22;31619;49.008;12.106;2023-01-26T01:59:52;0.50;99.90
45906;DHT22;31619;49.008;12.106;2023-01-26T02:02:19;0.50;99.90
45906;DHT22;31619;49.008;12.106;2023-01-26T02:04:45;0.50;99.90
45906;DHT22;31619;49.008;12.106;2023-01-26T02:07:11;0.50;99.90
45906;DHT22;31619;49.008;12.106;2023-01-26T02:09:38;0.50;99.90
45906;DHT22;31619;49.008;12.106;2023-01-26T02:12:26;0.50;99.90
45906;DHT22;31619;49.008;12.106;2023-01-26T02:14:54;0.40;99.90
45906;DHT22;31619;49.008;12.106;2023-01-26T02:17:21;0.50;99.90
45906;DHT22;31619;49.008;12.106;2023-01-26T02:20:06;0.40;99.90
45906;DHT22;31619;49.008;12.106;2023-01-26T02:28:03;0.50;99.90
45906;DHT22;31619;49.008;12.106;2023-01-26T02:30:29;0.40;99.90
45906;DHT22;31619;49.008;12.106;2023-01-26T02:32:55;0.30;99.90
45906;DHT22;31619;49.008;12.106;2023-01-26T02:35:21;0.30;99.90
45906;DHT22;31619;49.008;12.106;2023-01-26T02:37:47;0.20;99.90
45906;DHT22;31619;49.008;12.106;2023-01-26T02:42:51;0.10;99.90
45906;DHT22;31619;49.008;12.106;2023-01-26T02:45:20;0.20;99.90
45906;DHT22;31619;49.008;12.106;2023-01-26T02:47:46;0.20;99.90
45906;DHT22;31619;49.008;12.106;2023-01-26T02:50:12;0.10;99.90
45906;DHT22;31619;49.008;12.106;2023-01-26T02:52:37;0.10;99.90
45906;DHT22;31619;49.008;12.106;2023-01-26T02:55:03;0.10;99.90
45906;DHT22;31619;49.008;12.106;2023-01-26T02:57:50;0.30;99.90
45906;DHT22;31619;49.008;12.106;2023-01-26T03:00:22;0.40;99.90
45906;DHT22;31619;49.008;12.106;2023-01-26T03:02:49;0.40;99.90
45906;DHT22;31619;49.008;12.106;2023-01-26T03:05:15;0.60;99.90
45906;DHT22;31619;49.008;12.106;2023-01-26T03:07:41;0.60;99.90
45906;DHT22;31619;49.008;12.106;2023-01-26T03:10:09;0.60;99.90
45906;DHT22;31619;49.008;12.106;2023-01-26T03:12:35;0.50;99.90
45906;DHT22;31619;49.008;12.106;2023-01-26T03:15:00;0.40;99.90
45906;DHT22;31619;49.008;12.106;2023-01-26T03:17:44;0.40;99.90
45906;DHT22;31619;49.008;12.106;2023-01-26T03:20:10;0.30;99.90
45906;DHT22;31619;49.008;12.106;2023-01-26T03:22:54;0.40;99.90
45906;DHT22;31619;49.008;12.106;2023-01-26T03:25:39;0.20;99.90
45906;DHT22;31619;49.008;12.106;2023-01-26T03:28:23;0.20;99.90
45906;DHT22;31619;49.008;12.106;2023-01-26T03:30:50;0.30;99.90
45906;DHT22;31619;49.008;12.106;2023-01-26T03:33:17;0.30;99.90
45906;DHT22;31619;49.008;12.106;2023-01-26T03:35:43;0.30;99.90
45906;DHT22;31619;49.008;12.106;2023-01-26T03:38:09;0.30;99.90
45906;DHT22;31619;49.008;12.106;2023-01-26T03:40:35;0.30;99.90
45906;DHT22;31619;49.008;12.106;2023-01-26T03:43:19;0.30;99.90
45906;DHT22;31619;49.008;12.106;2023-01-26T03:46:04;0.50;99.90
45906;DHT22;31619;49.008;12.106;2023-01-26T03:48:48;0.60;99.90
45906;DHT22;31619;49.008;12.106;2023-01-26T03:51:32;0.50;99.90
45906;DHT22;31619;49.008;12.106;2023-01-26T03:54:16;0.50;99.90
45906;DHT22;31619;49.008;12.106;2023-01-26T03:57:00;0.60;99.90
45906;DHT22;31619;49.008;12.106;2023-01-26T03:59:26;0.60;99.90
45906;DHT22;31619;49.008;12.106;2023-01-26T04:02:09;0.60;99.90
45906;DHT22;31619;49.008;12.106;2023-01-26T04:04:53;0.40;99.90
45906;DHT22;31619;49.008;12.106;2023-01-26T04:07:38;0.30;99.90
45906;DHT22;31619;49.008;12.106;2023-01-26T04:10:23;0.10;99.90
45906;DHT22;31619;49.008;12.106;2023-01-26T04:12:49;0.20;99.90
45906;DHT22;31619;49.008;12.106;2023-01-26T04:15:35;0.20;99.90
45906;DHT22;31619;49.008;12.106;2023-01-26T04:18:19;0.10;99.90
45906;DHT22;31619;49.008;12.106;2023-01-26T04:21:04;0.10;99.90
45906;DHT22;31619;49.008;12.106;2023-01-26T04:23:49;0.30;99.90
45906;DHT22;31619;49.008;12.106;2023-01-26T04:26:15;0.30;99.90
45906;DHT22;31619;49.008;12.106;2023-01-26T04:28:41;0.20;99.90
45906;DHT22;31619;49.008;12.106;2023-01-26T04:31:07;0.20;99.90
45906;DHT22;31619;49.008;12.106;2023-01-26T04:33:32;0.30;99.90
45906;DHT22;31619;49.008;12.106;2023-01-26T04:36:03;0.30;99.90
45906;DHT22;31619;49.008;12.106;2023-01-26T04:38:28;0.30;99.90
45906;DHT22;31619;49.008;12.106;2023-01-26T04:40:54;0.30;99.90
45906;DHT22;31619;49.008;12.106;2023-01-26T04:43:20;0.40;99.90
45906;DHT22;31619;49.008;12.106;2023-01-26T04:46:00;0.40;99.90
45906;DHT22;31619;49.008;12.106;2023-01-26T04:48:27;0.40;99.90
45906;DHT22;31619;49.008;12.106;2023-01-26T04:50:54;0.30;99.90
45906;DHT22;31619;49.008;12.106;2023-01-26T04:53:20;0.30;99.90
45906;DHT22;31619;49.008;12.106;2023-01-26T04:55:46;0.30;99.90
45906;DHT22;31619;49.008;12.106;2023-01-26T04:58:11;0.20;99.90
45906;DHT22;31619;49.008;12.106;2023-01-26T05:00:37;0.40;99.90
45906;DHT22;31619;49.008;12.106;2023-01-26T05:03:02;0.50;99.90
45906;DHT22;31619;49.008;12.106;2023-01-26T05:05:28;0.50;99.90
45906;DHT22;31619;49.008;12.106;2023-01-26T05:07:53;0.50;99.90
45906;DHT22;31619;49.008;12.106;2023-01-26T05:10:19;0.40;99.90
45906;DHT22;31619;49.008;12.106;2023-01-26T05:12:44;0.50;99.90
45906;DHT22;31619;49.008;12.106;2023-01-26T05:15:10;0.60;99.90
45906;DHT22;31619;49.008;12.106;2023-01-26T05:17:36;0.50;99.90
45906;DHT22;31619;49.008;12.106;2023-01-26T05:20:02;0.30;99.90
45906;DHT22;31619;49.008;12.106;2023-01-26T05:22:28;0.20;99.90
45906;DHT22;31619;49.008;12.106;2023-01-26T05:24:54;0.30;99.90
45906;DHT22;31619;49.008;12.106;2023-01-26T05:27:19;0.20;99.90
45906;DHT22;31619;49.008;12.106;2023-01-26T05:29:49;0.20;99.90
45906;DHT22;31619;49.008;12.106;2023-01-26T05:32:14;0.20;99.90
45906;DHT22;31619;49.008;12.106;2023-01-26T05:34:40;0.20;99.90
45906;DHT22;31619;49.008;12.106;2023-01-26T05:37:06;0.20;99.90
45906;DHT22;31619;49.008;12.106;2023-01-26T05:39:31;0.10;99.90
45906;DHT22;31619;49.008;12.106;2023-01-26T05:41:57;0.20;99.90
45906;DHT22;31619;49.008;12.106;2023-01-26T05:44:23;0.20;99.90
45906;DHT22;31619;49.008;12.106;2023-01-26T05:46:53;0.20;99.90
45906;DHT22;31619;49.008;12.106;2023-01-26T05:49:19;0.20;99.90
45906;DHT22;31619;49.008;12.106;2023-01-26T05:51:44;0.30;99.90
45906;DHT22;31619;49.008;12.106;2023-01-26T05:54:10;0.30;99.90
45906;DHT22;31619;49.008;12.106;2023-01-26T05:56:35;0.30;99.90
45906;DHT22;31619;49.008;12.106;2023-01-26T05:59:01;0.20;99.90
45906;DHT22;31619;49.008;12.106;2023-01-26T06:01:27;0.20;99.90
45906;DHT22;31619;49.008;12.106;2023-01-26T06:03:53;0.10;99.90
45906;DHT22;31619;49.008;12.106;2023-01-26T06:06:19;0.10;99.90
45906;DHT22;31619;49.008;12.106;2023-01-26T06:08:44;0.20;99.90
45906;DHT22;31619;49.008;12.106;2023-01-26T06:11:10;0.20;99.90
45906;DHT22;31619;49.008;12.106;2023-01-26T06:13:35;0.20;99.90
45906;DHT22;31619;49.008;12.106;2023-01-26T06:16:01;0.20;99.90
45906;DHT22;31619;49.008;12.106;2023-01-26T06:18:27;0.10;99.90
45906;DHT22;31619;49.008;12.106;2023-01-26T06:20:52;0.20;99.90
45906;DHT22;31619;49.008;12.106;2023-01-26T06:23:18;0.20;99.90
45906;DHT22;31619;49.008;12.106;2023-01-26T06:25:44;0.30;99.90
45906;DHT22;31619;49.008;12.106;2023-01-26T06:28:09;0.30;99.90
45906;DHT22;31619;49.008;12.106;2023-01-26T06:30:35;0.30;99.90
45906;DHT22;31619;49.008;12.106;2023-01-26T06:33:01;0.50;99.90
45906;DHT22;31619;49.008;12.106;2023-01-26T06:35:26;0.60;99.90
45906;DHT22;31619;49.008;12.106;2023-01-26T06:37:52;0.60;99.90
45906;DHT22;31619;49.008;12.106;2023-01-26T06:40:18;0.60;99.90
45906;DHT22;31619;49.008;12.106;2023-01-26T06:42:50;0.60;99.90
45906;DHT22;31619;49.008;12.106;2023-01-26T06:45:16;0.60;99.90
45906;DHT22;31619;49.008;12.106;2023-01-26T06:47:49;0.60;99.90
45906;DHT22;31619;49.008;12.106;2023-01-26T06:50:18;0.50;99.90
45906;DHT22;31619;49.008;12.106;2023-01-26T06:52:47;0.50;99.90
45906;DHT22;31619;49.008;12.106;2023-01-26T06:55:35;0.60;99.90
45906;DHT22;31619;49.008;12.106;2023-01-26T06:58:01;0.50;99.90
45906;DHT22;31619;49.008;12.106;2023-01-26T07:00:27;0.40;99.90
45906;DHT22;31619;49.008;12.106;2023-01-26T07:02:52;0.40;99.90
45906;DHT22;31619;49.008;12.106;2023-01-26T07:05:18;0.40;99.90
45906;DHT22;31619;49.008;12.106;2023-01-26T07:07:44;0.30;99.90
45906;DHT22;31619;49.008;12.106;2023-01-26T07:10:10;0.50;99.90
45906;DHT22;31619;49.008;12.106;2023-01-26T07:12:41;0.50;99.90
45906;DHT22;31619;49.008;12.106;2023-01-26T07:15:08;0.50;99.90
45906;DHT22;31619;49.008;12.106;2023-01-26T07:17:33;0.50;99.90
45906;DHT22;31619;49.008;12.106;2023-01-26T07:19:59;0.40;99.90
45906;DHT22;31619;49.008;12.106;2023-01-26T07:22:24;0.30;99.90
45906;DHT22;31619;49.008;12.106;2023-01-26T07:24:50;0.40;99.90
45906;DHT22;31619;49.008;12.106;2023-01-26T07:27:15;0.40;99.90
45906;DHT22;31619;49.008;12.106;2023-01-26T07:29:41;0.50;99.90
45906;DHT22;31619;49.008;12.106;2023-01-26T07:32:06;0.50;99.90
45906;DHT22;31619;49.008;12.106;2023-01-26T07:34:32;0.50;99.90
45906;DHT22;31619;49.008;12.106;2023-01-26T07:36:58;0.50;99.90
45906;DHT22;31619;49.008;12.106;2023-01-26T07:39:23;0.50;99.90
45906;DHT22;31619;49.008;12.106;2023-01-26T07:41:49;0.50;99.90
45906;DHT22;31619;49.008;12.106;2023-01-26T07:44:14;0.50;99.90
45906;DHT22;31619;49.008;12.106;2023-01-26T07:46:40;0.30;99.90
45906;DHT22;31619;49.008;12.106;2023-01-26T07:49:06;0.20;99.90
45906;DHT22;31619;49.008;12.106;2023-01-26T07:51:32;0.10;99.90
45906;DHT22;31619;49.008;12.106;2023-01-26T07:53:58;0.30;99.90
45906;DHT22;31619;49.008;12.106;2023-01-26T07:56:24;0.40;99.90
45906;DHT22;31619;49.008;12.106;2023-01-26T07:58:51;0.50;99.90
45906;DHT22;31619;49.008;12.106;2023-01-26T08:01:17;0.50;99.90
45906;DHT22;31619;49.008;12.106;2023-01-26T08:03:42;0.50;99.90
45906;DHT22;31619;49.008;12.106;2023-01-26T08:06:10;0.50;99.90
45906;DHT22;31619;49.008;12.106;2023-01-26T08:08:36;0.40;99.90
45906;DHT22;31619;49.008;12.106;2023-01-26T08:11:04;0.50;99.90
45906;DHT22;31619;49.008;12.106;2023-01-26T08:13:30;0.50;99.90
45906;DHT22;31619;49.008;12.106;2023-01-26T08:16:05;0.40;99.90
45906;DHT22;31619;49.008;12.106;2023-01-26T08:18:31;0.50;99.90
45906;DHT22;31619;49.008;12.106;2023-01-26T08:20:58;0.50;99.90
45906;DHT22;31619;49.008;12.106;2023-01-26T08:23:24;0.50;99.90
45906;DHT22;31619;49.008;12.106;2023-01-26T08:25:50;0.60;99.90
45906;DHT22;31619;49.008;12.106;2023-01-26T08:28:15;0.60;99.90
45906;DHT22;31619;49.008;12.106;2023-01-26T08:30:41;0.60;99.90
45906;DHT22;31619;49.008;12.106;2023-01-26T08:33:07;0.60;99.90
45906;DHT22;31619;49.008;12.106;2023-01-26T08:35:33;0.50;99.90
45906;DHT22;31619;49.008;12.106;2023-01-26T08:37:59;0.50;99.90
45906;DHT22;31619;49.008;12.106;2023-01-26T08:40:24;0.50;99.90
45906;DHT22;31619;49.008;12.106;2023-01-26T08:42:51;0.40;99.90
45906;DHT22;31619;49.008;12.106;2023-01-26T08:45:16;0.20;99.90
45906;DHT22;31619;49.008;12.106;2023-01-26T08:47:42;0.30;99.90
45906;DHT22;31619;49.008;12.106;2023-01-26T08:50:09;0.20;99.90
45906;DHT22;31619;49.008;12.106;2023-01-26T08:52:34;0.30;99.90
45906;DHT22;31619;49.008;12.106;2023-01-26T08:55:01;0.40;99.90
45906;DHT22;31619;49.008;12.106;2023-01-26T08:57:27;0.50;99.90
45906;DHT22;31619;49.008;12.106;2023-01-26T08:59:53;0.60;99.90
45906;DHT22;31619;49.008;12.106;2023-01-26T09:02:18;0.60;99.90
45906;DHT22;31619;49.008;12.106;2023-01-26T09:04:44;0.70;99.90
45906;DHT22;31619;49.008;12.106;2023-01-26T09:07:09;0.60;99.90
45906;DHT22;31619;49.008;12.106;2023-01-26T09:09:35;0.50;99.90
45906;DHT22;31619;49.008;12.106;2023-01-26T09:12:00;0.50;99.90
45906;DHT22;31619;49.008;12.106;2023-01-26T09:14:26;0.50;99.90
45906;DHT22;31619;49.008;12.106;2023-01-26T09:16:53;0.70;99.90
45906;DHT22;31619;49.008;12.106;2023-01-26T09:19:18;0.80;99.90
45906;DHT22;31619;49.008;12.106;2023-01-26T09:21:44;0.90;99.90
45906;DHT22;31619;49.008;12.106;2023-01-26T09:24:09;0.90;99.90
45906;DHT22;31619;49.008;12.106;2023-01-26T09:26:35;0.90;99.90
45906;DHT22;31619;49.008;12.106;2023-01-26T09:29:01;1.00;99.90
45906;DHT22;31619;49.008;12.106;2023-01-26T09:31:27;1.00;99.90
45906;DHT22;31619;49.008;12.106;2023-01-26T09:33:52;1.00;99.90
45906;DHT22;31619;49.008;12.106;2023-01-26T09:36:18;1.00;99.90
45906;DHT22;31619;49.008;12.106;2023-01-26T09:38:44;0.90;99.90
45906;DHT22;31619;49.008;12.106;2023-01-26T09:41:24;1.00;99.90
45906;DHT22;31619;49.008;12.106;2023-01-26T09:44:00;1.10;99.90
45906;DHT22;31619;49.008;12.106;2023-01-26T09:46:49;1.20;99.90
45906;DHT22;31619;49.008;12.106;2023-01-26T09:52:02;1.40;99.90
45906;DHT22;31619;49.008;12.106;2023-01-26T09:54:49;1.50;99.90
45906;DHT22;31619;49.008;12.106;2023-01-26T09:57:18;1.40;99.90
45906;DHT22;31619;49.008;12.106;2023-01-26T10:05:31;1.30;99.90
45906;DHT22;31619;49.008;12.106;2023-01-26T10:08:02;1.40;99.90
45906;DHT22;31619;49.008;12.106;2023-01-26T10:10:41;1.60;99.90
45906;DHT22;31619;49.008;12.106;2023-01-26T10:13:12;1.70;99.90
45906;DHT22;31619;49.008;12.106;2023-01-26T10:15:40;1.60;99.90
45906;DHT22;31619;49.008;12.106;2023-01-26T10:18:21;1.70;99.90
45906;DHT22;31619;49.008;12.106;2023-01-26T10:20:52;1.50;99.90
45906;DHT22;31619;49.008;12.106;2023-01-26T10:23:24;1.50;99.90
45906;DHT22;31619;49.008;12.106;2023-01-26T10:25:52;1.40;99.90
45906;DHT22;31619;49.008;12.106;2023-01-26T10:28:32;1.40;99.90
45906;DHT22;31619;49.008;12.106;2023-01-26T10:31:01;1.50;99.90
45906;DHT22;31619;49.008;12.106;2023-01-26T10:33:34;1.50;99.90
45906;DHT22;31619;49.008;12.106;2023-01-26T10:36:01;1.50;99.90
45906;DHT22;31619;49.008;12.106;2023-01-26T10:41:01;1.50;99.90
45906;DHT22;31619;49.008;12.106;2023-01-26T10:43:28;1.40;99.90
45906;DHT22;31619;49.008;12.106;2023-01-26T10:45:53;1.50;99.90
45906;DHT22;31619;49.008;12.106;2023-01-26T10:48:23;1.50;99.90
45906;DHT22;31619;49.008;12.106;2023-01-26T10:50:52;1.80;99.90
45906;DHT22;31619;49.008;12.106;2023-01-26T10:53:26;1.80;99.90
45906;DHT22;31619;49.008;12.106;2023-01-26T10:56:05;1.90;99.90
45906;DHT22;31619;49.008;12.106;2023-01-26T11:01:08;1.80;99.90
45906;DHT22;31619;49.008;12.106;2023-01-26T11:03:41;1.90;99.90
45906;DHT22;31619;49.008;12.106;2023-01-26T11:06:15;1.80;99.90
45906;DHT22;31619;49.008;12.106;2023-01-26T11:08:42;1.80;99.90
45906;DHT22;31619;49.008;12.106;2023-01-26T11:11:25;1.90;99.90
45906;DHT22;31619;49.008;12.106;2023-01-26T11:14:15;2.00;99.90
45906;DHT22;31619;49.008;12.106;2023-01-26T11:17:03;2.00;99.90
45906;DHT22;31619;49.008;12.106;2023-01-26T11:22:49;1.90;99.90
45906;DHT22;31619;49.008;12.106;2023-01-26T11:25:24;1.90;99.90
45906;DHT22;31619;49.008;12.106;2023-01-26T11:34:08;1.80;99.90
45906;DHT22;31619;49.008;12.106;2023-01-26T11:50:29;1.90;99.90
45906;DHT22;31619;49.008;12.106;2023-01-26T11:56:02;1.90;99.90
45906;DHT22;31619;49.008;12.106;2023-01-26T11:58:47;1.90;99.90
45906;DHT22;31619;49.008;12.106;2023-01-26T12:01:21;1.90;99.90
45906;DHT22;31619;49.008;12.106;2023-01-26T12:03:54;2.00;99.90
45906;DHT22;31619;49.008;12.106;2023-01-26T12:06:30;2.00;99.90
45906;DHT22;31619;49.008;12.106;2023-01-26T12:09:21;1.90;99.90
45906;DHT22;31619;49.008;12.106;2023-01-26T12:11:58;1.80;99.90
45906;DHT22;31619;49.008;12.106;2023-01-26T12:14:34;1.90;99.90
45906;DHT22;31619;49.008;12.106;2023-01-26T12:19:50;1.90;99.90
45906;DHT22;31619;49.008;12.106;2023-01-26T12:22:38;2.00;99.90
45906;DHT22;31619;49.008;12.106;2023-01-26T12:33:12;2.00;99.90
45906;DHT22;31619;49.008;12.106;2023-01-26T12:39:06;2.10;99.90
45906;DHT22;31619;49.008;12.106;2023-01-26T12:45:11;1.90;99.90
45906;DHT22;31619;49.008;12.106;2023-01-26T12:47:44;1.80;99.90
45906;DHT22;31619;49.008;12.106;2023-01-26T12:50:31;1.90;99.90
45906;DHT22;31619;49.008;12.106;2023-01-26T12:55:45;1.80;99.90
45906;DHT22;31619;49.008;12.106;2023-01-26T12:58:18;1.80;99.90
45906;DHT22;31619;49.008;12.106;2023-01-26T13:01:14;1.80;99.90
45906;DHT22;31619;49.008;12.106;2023-01-26T13:04:07;1.70;99.90
45906;DHT22;31619;49.008;12.106;2023-01-26T13:06:33;1.60;99.90
45906;DHT22;31619;49.008;12.106;2023-01-26T13:09:22;1.70;99.90
45906;DHT22;31619;49.008;12.106;2023-01-26T13:11:55;1.80;99.90
45906;DHT22;31619;49.008;12.106;2023-01-26T13:16:55;1.70;99.90
45906;DHT22;31619;49.008;12.106;2023-01-26T13:22:00;2.00;99.90
45906;DHT22;31619;49.008;12.106;2023-01-26T13:26:58;1.90;99.90
45906;DHT22;31619;49.008;12.106;2023-01-26T13:34:59;1.80;99.90
45906;DHT22;31619;49.008;12.106;2023-01-26T13:40:22;1.70;99.90
45906;DHT22;31619;49.008;12.106;2023-01-26T13:43:19;1.70;99.90
45906;DHT22;31619;49.008;12.106;2023-01-26T13:46:11;1.70;99.90
45906;DHT22;31619;49.008;12.106;2023-01-26T13:51:05;1.70;99.90
45906;DHT22;31619;49.008;12.106;2023-01-26T13:53:38;1.80;99.90
45906;DHT22;31619;49.008;12.106;2023-01-26T13:56:40;1.90;99.90
45906;DHT22;31619;49.008;12.106;2023-01-26T13:59:17;2.00;99.90
45906;DHT22;31619;49.008;12.106;2023-01-26T14:01:54;1.80;99.90
45906;DHT22;31619;49.008;12.106;2023-01-26T14:09:32;1.90;99.90
45906;DHT22;31619;49.008;12.106;2023-01-26T14:12:05;1.80;99.90
45906;DHT22;31619;49.008;12.106;2023-01-26T14:14:35;1.70;99.90
45906;DHT22;31619;49.008;12.106;2023-01-26T14:17:27;1.70;99.90
45906;DHT22;31619;49.008;12.106;2023-01-26T14:19:53;1.80;99.90
45906;DHT22;31619;49.008;12.106;2023-01-26T14:22:18;1.90;99.90
45906;DHT22;31619;49.008;12.106;2023-01-26T14:24:48;1.90;99.90
45906;DHT22;31619;49.008;12.106;2023-01-26T14:29:54;2.00;99.90
45906;DHT22;31619;49.008;12.106;2023-01-26T14:32:20;1.90;99.90
45906;DHT22;31619;49.008;12.106;2023-01-26T14:34:54;1.90;99.90
45906;DHT22;31619;49.008;12.106;2023-01-26T14:37:20;1.80;99.90
45906;DHT22;31619;49.008;12.106;2023-01-26T14:39:47;1.60;99.90
45906;DHT22;31619;49.008;12.106;2023-01-26T14:42:14;1.60;99.90
45906;DHT22;31619;49.008;12.106;2023-01-26T14:44:40;1.40;99.90
45906;DHT22;31619;49.008;12.106;2023-01-26T14:52:24;1.40;99.90
45906;DHT22;31619;49.008;12.106;2023-01-26T14:54:56;1.50;99.90
45906;DHT22;31619;49.008;12.106;2023-01-26T14:57:25;1.50;99.90
45906;DHT22;31619;49.008;12.106;2023-01-26T14:59:59;1.60;99.90
45906;DHT22;31619;49.008;12.106;2023-01-26T15:02:36;1.60;99.90
45906;DHT22;31619;49.008;12.106;2023-01-26T15:05:14;1.50;99.90
45906;DHT22;31619;49.008;12.106;2023-01-26T15:08:02;1.50;99.90
45906;DHT22;31619;49.008;12.106;2023-01-26T15:10:41;1.50;99.90
45906;DHT22;31619;49.008;12.106;2023-01-26T15:13:21;1.50;99.90
45906;DHT22;31619;49.008;12.106;2023-01-26T15:16:05;1.50;99.90
45906;DHT22;31619;49.008;12.106;2023-01-26T15:18:33;1.50;99.90
45906;DHT22;31619;49.008;12.106;2023-01-26T15:23:31;1.50;99.90
45906;DHT22;31619;49.008;12.106;2023-01-26T15:26:07;1.50;99.90
45906;DHT22;31619;49.008;12.106;2023-01-26T15:28:33;1.50;99.90
45906;DHT22;31619;49.008;12.106;2023-01-26T15:31:00;1.50;99.90
45906;DHT22;31619;49.008;12.106;2023-01-26T15:33:47;1.50;99.90
45906;DHT22;31619;49.008;12.106;2023-01-26T15:39:12;1.30;99.90
45906;DHT22;31619;49.008;12.106;2023-01-26T15:41:39;1.30;99.90
45906;DHT22;31619;49.008;12.106;2023-01-26T15:44:13;1.20;99.90
45906;DHT22;31619;49.008;12.106;2023-01-26T15:46:39;1.10;99.90
45906;DHT22;31619;49.008;12.106;2023-01-26T15:49:05;1.20;99.90
45906;DHT22;31619;49.008;12.106;2023-01-26T15:51:31;1.30;99.90
45906;DHT22;31619;49.008;12.106;2023-01-26T15:53:56;1.30;99.90
45906;DHT22;31619;49.008;12.106;2023-01-26T15:56:22;1.10;99.90
45906;DHT22;31619;49.008;12.106;2023-01-26T15:58:47;1.00;99.90
45906;DHT22;31619;49.008;12.106;2023-01-26T16:01:15;1.00;99.90
45906;DHT22;31619;49.008;12.106;2023-01-26T16:03:42;1.10;99.90
45906;DHT22;31619;49.008;12.106;2023-01-26T16:06:20;1.10;99.90
45906;DHT22;31619;49.008;12.106;2023-01-26T16:08:46;1.20;99.90
45906;DHT22;31619;49.008;12.106;2023-01-26T16:11:12;1.10;99.90
45906;DHT22;31619;49.008;12.106;2023-01-26T16:13:38;1.10;99.90
45906;DHT22;31619;49.008;12.106;2023-01-26T16:16:05;1.10;99.90
45906;DHT22;31619;49.008;12.106;2023-01-26T16:18:30;1.20;99.90
45906;DHT22;31619;49.008;12.106;2023-01-26T16:20:56;1.10;99.90
45906;DHT22;31619;49.008;12.106;2023-01-26T16:23:27;1.10;99.90
45906;DHT22;31619;49.008;12.106;2023-01-26T16:25:54;1.20;99.90
45906;DHT22;31619;49.008;12.106;2023-01-26T16:28:20;1.20;99.90
45906;DHT22;31619;49.008;12.106;2023-01-26T16:30:47;1.20;99.90
45906;DHT22;31619;49.008;12.106;2023-01-26T16:33:16;1.20;99.90
45906;DHT22;31619;49.008;12.106;2023-01-26T16:35:42;1.10;99.90
45906;DHT22;31619;49.008;12.106;2023-01-26T16:38:08;1.10;99.90
45906;DHT22;31619;49.008;12.106;2023-01-26T16:40:42;1.00;99.90
45906;DHT22;31619;49.008;12.106;2023-01-26T16:45:44;0.80;99.90
45906;DHT22;31619;49.008;12.106;2023-01-26T16:48:14;0.90;99.90
45906;DHT22;31619;49.008;12.106;2023-01-26T16:50:40;1.00;99.90
45906;DHT22;31619;49.008;12.106;2023-01-26T16:53:30;1.00;99.90
45906;DHT22;31619;49.008;12.106;2023-01-26T16:55:58;1.00;99.90
45906;DHT22;31619;49.008;12.106;2023-01-26T16:58:24;1.00;99.90
45906;DHT22;31619;49.008;12.106;2023-01-26T17:00:51;0.90;99.90
45906;DHT22;31619;49.008;12.106;2023-01-26T17:03:17;1.00;99.90
45906;DHT22;31619;49.008;12.106;2023-01-26T17:05:43;1.00;99.90
45906;DHT22;31619;49.008;12.106;2023-01-26T17:08:08;1.00;99.90
45906;DHT22;31619;49.008;12.106;2023-01-26T17:10:34;1.10;99.90
45906;DHT22;31619;49.008;12.106;2023-01-26T17:13:00;1.10;99.90
45906;DHT22;31619;49.008;12.106;2023-01-26T17:15:26;1.10;99.90
45906;DHT22;31619;49.008;12.106;2023-01-26T17:17:53;1.10;99.90
45906;DHT22;31619;49.008;12.106;2023-01-26T17:20:19;1.10;99.90
45906;DHT22;31619;49.008;12.106;2023-01-26T17:22:45;1.10;99.90
45906;DHT22;31619;49.008;12.106;2023-01-26T17:25:11;1.20;99.90
45906;DHT22;31619;49.008;12.106;2023-01-26T17:27:36;1.20;99.90
45906;DHT22;31619;49.008;12.106;2023-01-26T17:30:03;1.20;99.90
45906;DHT22;31619;49.008;12.106;2023-01-26T17:32:29;1.20;99.90
45906;DHT22;31619;49.008;12.106;2023-01-26T17:34:54;1.20;99.90